createdAt,value
2022-09-20T00:01:35.873Z,0.20
2022-09-20T00:04:24.434Z,0.40
2022-09-20T00:07:12.914Z,0.47
2022-09-20T00:10:01.571Z,0.10
2022-09-20T00:12:50.334Z,0.15
2022-09-20T00:15:44.203Z,0.38
2022-09-20T00:18:32.713Z,0.10
2022-09-20T00:21:23.657Z,0.20
2022-09-20T00:24:12.494Z,0.45
2022-09-20T00:27:02.547Z,0.10
2022-09-20T00:29:51.051Z,0.32
2022-09-20T00:32:41.322Z,0.30
2022-09-20T00:35:29.406Z,0.40
2022-09-20T00:38:18.126Z,0.30
2022-09-20T00:41:06.731Z,0.30
2022-09-20T00:43:55.876Z,0.20
2022-09-20T00:46:45.638Z,0.10
2022-09-20T00:49:35.879Z,0.20
2022-09-20T00:52:24.870Z,0.35
2022-09-20T00:55:14.089Z,0.10
2022-09-20T00:58:03.076Z,0.03
2022-09-20T01:00:52.393Z,0.25
2022-09-20T01:03:41.980Z,0.45
2022-09-20T01:06:32.207Z,0.40
2022-09-20T01:09:23.005Z,0.80
2022-09-20T01:12:16.722Z,0.20
2022-09-20T01:15:06.834Z,0.38
2022-09-20T01:17:57.356Z,0.20
2022-09-20T01:20:47.454Z,0.10
2022-09-20T01:23:47.411Z,0.30
2022-09-20T01:26:54.109Z,0.20
2022-09-20T01:30:06.350Z,0.20
2022-09-20T01:33:07.931Z,0.10
2022-09-20T01:35:57.475Z,0.30
2022-09-20T01:38:50.554Z,0.30
2022-09-20T01:41:43.135Z,0.32
2022-09-20T01:44:36.956Z,0.10
2022-09-20T01:47:33.419Z,0.22
2022-09-20T01:50:29.602Z,0.13
2022-09-20T01:53:50.195Z,0.20
2022-09-20T01:57:00.321Z,0.30
2022-09-20T02:00:05.793Z,0.10
2022-09-20T02:03:33.717Z,0.17
2022-09-20T02:06:28.432Z,0.20
2022-09-20T02:09:52.176Z,0.20
2022-09-20T02:12:54.101Z,0.52
2022-09-20T02:16:07.942Z,0.22
2022-09-20T02:19:21.958Z,0.30
2022-09-20T02:22:22.995Z,0.20
2022-09-20T02:25:25.177Z,0.35
2022-09-20T02:28:23.255Z,0.10
2022-09-20T02:31:18.076Z,0.30
2022-09-20T02:34:34.812Z,0.20
2022-09-20T02:37:40.713Z,0.40
2022-09-20T02:40:42.179Z,0.20
2022-09-20T02:43:35.872Z,0.22
2022-09-20T02:46:28.626Z,0.10
2022-09-20T02:49:25.443Z,0.10
2022-09-20T02:52:19.059Z,0.40
2022-09-20T02:55:11.131Z,0.10
2022-09-20T02:58:06.692Z,0.10
2022-09-20T03:01:02.540Z,0.10
2022-09-20T03:03:57.807Z,0.30
2022-09-20T03:06:53.043Z,0.20
2022-09-20T03:09:48.422Z,0.50
2022-09-20T03:12:44.687Z,0.20
2022-09-20T03:15:42.697Z,0.20
2022-09-20T03:18:36.082Z,0.25
2022-09-20T03:21:33.461Z,0.38
2022-09-20T03:24:43.810Z,0.38
2022-09-20T03:27:37.017Z,0.43
2022-09-20T03:30:31.659Z,0.40
2022-09-20T03:33:26.826Z,0.52
2022-09-20T03:36:34.881Z,0.68
2022-09-20T03:39:38.126Z,0.55
2022-09-20T03:42:28.038Z,0.70
2022-09-20T03:45:28.109Z,1.08
2022-09-20T03:48:36.992Z,0.43
2022-09-20T03:51:33.883Z,0.40
2022-09-20T03:54:40.650Z,0.50
2022-09-20T03:57:42.679Z,0.40
2022-09-20T04:00:41.158Z,0.60
2022-09-20T04:03:36.120Z,0.47
2022-09-20T04:06:40.673Z,0.30
2022-09-20T04:09:42.986Z,0.35
2022-09-20T04:12:37.200Z,0.40
2022-09-20T04:15:34.381Z,0.32
2022-09-20T04:18:28.910Z,0.40
2022-09-20T04:21:23.834Z,0.38
2022-09-20T04:24:17.068Z,0.20
2022-09-20T04:27:13.870Z,0.20
2022-09-20T04:30:05.389Z,0.30
2022-09-20T04:33:01.809Z,0.30
2022-09-20T04:36:17.927Z,0.20
2022-09-20T04:39:18.958Z,0.30
2022-09-20T04:42:45.964Z,0.35
2022-09-20T04:46:16.301Z,0.30
2022-09-20T04:49:28.647Z,0.30
2022-09-20T04:52:49.599Z,0.57
2022-09-20T04:55:52.885Z,0.50
2022-09-20T04:59:05.861Z,0.47
2022-09-20T05:02:50.584Z,0.50
2022-09-20T05:06:05.175Z,0.57
2022-09-20T05:09:10.037Z,0.30
2022-09-20T05:12:13.982Z,0.38
2022-09-20T05:15:17.160Z,0.47
2022-09-20T05:18:22.035Z,0.55
2022-09-20T05:21:24.286Z,0.65
2022-09-20T05:24:22.039Z,0.60
2022-09-20T05:27:24.202Z,0.80
2022-09-20T05:30:22.964Z,0.50
2022-09-20T05:33:20.525Z,0.20
2022-09-20T05:36:14.950Z,0.30
2022-09-20T05:39:13.843Z,0.50
2022-09-20T05:42:11.204Z,0.43
2022-09-20T05:45:06.087Z,0.38
2022-09-20T05:47:58.485Z,0.47
2022-09-20T05:50:50.789Z,0.20
2022-09-20T05:54:10.790Z,0.30
2022-09-20T05:57:11.418Z,0.43
2022-09-20T06:00:07.030Z,0.60
2022-09-20T06:03:02.470Z,0.30
2022-09-20T06:05:56.528Z,0.60
2022-09-20T06:09:18.218Z,0.40
2022-09-20T06:12:18.899Z,0.40
2022-09-20T06:15:16.032Z,0.50
2022-09-20T06:18:17.652Z,0.25
2022-09-20T06:21:18.045Z,0.55
2022-09-20T06:24:24.067Z,0.63
2022-09-20T06:27:16.383Z,0.38
2022-09-20T06:30:07.963Z,0.50
2022-09-20T06:33:01.137Z,0.38
2022-09-20T06:35:56.883Z,0.65
2022-09-20T06:39:10.777Z,0.30
2022-09-20T06:41:59.383Z,0.40
2022-09-20T06:44:47.942Z,0.30
2022-09-20T06:47:38.778Z,0.30
2022-09-20T06:50:27.571Z,0.52
2022-09-20T06:53:18.721Z,0.30
2022-09-20T06:56:09.425Z,0.20
2022-09-20T06:58:57.790Z,0.60
2022-09-20T07:01:46.306Z,0.35
2022-09-20T07:04:34.923Z,0.20
2022-09-20T07:07:23.351Z,0.20
2022-09-20T07:10:14.702Z,0.40
2022-09-20T07:13:04.089Z,0.25
2022-09-20T07:15:52.518Z,0.20
2022-09-20T07:18:41.782Z,0.32
2022-09-20T07:21:30.239Z,0.25
2022-09-20T07:24:18.670Z,0.20
2022-09-20T07:27:09.283Z,0.35
2022-09-20T07:29:57.707Z,0.20
2022-09-20T07:32:46.217Z,0.30
2022-09-20T07:35:34.611Z,0.50
2022-09-20T07:38:24.970Z,0.30
2022-09-20T07:41:13.386Z,0.30
2022-09-20T07:44:20.907Z,0.30
2022-09-20T07:47:10.508Z,0.32
2022-09-20T07:49:59.031Z,0.30
2022-09-20T07:52:47.462Z,0.20
2022-09-20T07:55:35.938Z,0.30
2022-09-20T07:58:24.395Z,0.30
2022-09-20T08:01:14.793Z,0.32
2022-09-20T08:04:03.643Z,0.30
2022-09-20T08:06:53.616Z,0.25
2022-09-20T08:09:42.228Z,0.25
2022-09-20T08:15:39.316Z,0.30
2022-09-20T08:18:29.142Z,0.50
2022-09-20T08:21:17.692Z,0.40
2022-09-20T08:24:06.357Z,0.40
2022-09-20T08:26:54.884Z,0.30
2022-09-20T08:29:43.281Z,0.30
2022-09-20T08:32:32.480Z,0.43
2022-09-20T08:35:22.553Z,0.40
2022-09-20T08:41:21.056Z,0.40
2022-09-20T08:44:14.856Z,0.40
2022-09-20T08:47:09.903Z,0.32
2022-09-20T08:49:59.772Z,0.30
2022-09-20T08:52:51.026Z,0.30
2022-09-20T08:55:43.460Z,0.30
2022-09-20T08:58:32.576Z,0.30
2022-09-20T09:01:24.427Z,0.30
2022-09-20T09:04:15.638Z,0.20
2022-09-20T09:07:04.641Z,0.25
2022-09-20T09:09:56.152Z,0.22
2022-09-20T09:12:48.729Z,0.30
2022-09-20T09:15:38.509Z,0.45
2022-09-20T09:18:34.775Z,0.30
2022-09-20T09:21:26.797Z,0.10
2022-09-20T09:24:18.909Z,0.20
2022-09-20T09:27:14.181Z,0.52
2022-09-20T09:30:02.946Z,0.47
2022-09-20T09:32:51.761Z,0.35
2022-09-20T09:35:40.172Z,0.20
2022-09-20T09:38:30.761Z,0.30
2022-09-20T09:41:26.186Z,0.52
2022-09-20T09:44:24.398Z,0.20
2022-09-20T09:47:24.683Z,0.35
2022-09-20T09:50:23.550Z,0.30
2022-09-20T09:53:15.157Z,0.20
2022-09-20T09:56:22.643Z,0.30
2022-09-20T09:59:25.230Z,0.20
2022-09-20T10:02:26.786Z,0.30
2022-09-20T10:05:18.863Z,0.20
2022-09-20T10:08:21.732Z,0.20
2022-09-20T10:11:20.481Z,0.20
2022-09-20T10:14:18.396Z,0.10
2022-09-20T10:17:21.221Z,0.32
2022-09-20T10:20:22.727Z,0.40
2022-09-20T10:23:51.373Z,0.20
2022-09-20T10:26:43.810Z,0.20
2022-09-20T10:29:41.052Z,0.10
2022-09-20T10:32:47.403Z,0.17
2022-09-20T10:35:48.864Z,0.50
2022-09-20T10:38:40.242Z,0.22
2022-09-20T10:41:58.320Z,0.30
2022-09-20T10:44:57.490Z,0.30
2022-09-20T10:47:52.258Z,0.10
2022-09-20T10:50:44.969Z,0.20
2022-09-20T10:53:39.680Z,0.10
2022-09-20T10:56:30.939Z,0.15
2022-09-20T10:59:36.039Z,0.20
2022-09-20T11:02:53.243Z,0.30
2022-09-20T11:05:45.348Z,0.30
2022-09-20T11:08:35.496Z,0.10
2022-09-20T11:11:25.548Z,0.30
2022-09-20T11:14:16.650Z,0.10
2022-09-20T11:17:10.275Z,0.30
2022-09-20T11:20:07.090Z,0.20
2022-09-20T11:23:00.143Z,0.13
2022-09-20T11:25:52.839Z,0.22
2022-09-20T11:28:44.060Z,0.10
2022-09-20T11:31:35.685Z,0.17
2022-09-20T11:34:28.076Z,0.25
2022-09-20T11:37:18.539Z,0.20
2022-09-20T11:40:14.214Z,0.40
2022-09-20T11:43:04.785Z,0.10
2022-09-20T11:45:57.949Z,0.10
2022-09-20T11:48:50.324Z,0.10
2022-09-20T11:52:10.349Z,0.10
2022-09-20T11:55:25.963Z,0.43
2022-09-20T11:58:16.664Z,0.10
2022-09-20T12:01:14.154Z,0.30
2022-09-20T12:04:30.586Z,0.05
2022-09-20T12:07:19.225Z,0.10
2022-09-20T12:10:09.580Z,0.20
2022-09-20T12:13:00.654Z,0.10
2022-09-20T12:15:59.525Z,0.10
2022-09-20T12:19:02.373Z,0.20
2022-09-20T12:22:21.793Z,0.20
2022-09-20T12:25:39.140Z,0.10
2022-09-20T12:28:36.112Z,0.28
2022-09-20T12:31:41.795Z,0.15
2022-09-20T12:34:36.246Z,0.10
2022-09-20T12:37:29.547Z,0.10
2022-09-20T12:40:19.198Z,0.17
2022-09-20T12:43:07.743Z,0.10
2022-09-20T12:46:03.890Z,0.10
2022-09-20T12:49:34.086Z,0.10
2022-09-20T12:52:45.680Z,0.20
2022-09-20T12:55:40.059Z,0.35
2022-09-20T12:58:35.307Z,0.10
2022-09-20T13:01:36.898Z,0.20
2022-09-20T13:04:58.133Z,0.00
2022-09-20T13:07:55.102Z,0.03
2022-09-20T13:10:46.910Z,0.10
2022-09-20T13:13:37.312Z,0.15
2022-09-20T13:16:30.043Z,0.10
2022-09-20T13:19:21.400Z,0.10
2022-09-20T13:22:13.332Z,0.20
2022-09-20T13:25:03.702Z,0.03
2022-09-20T13:27:58.715Z,0.20
2022-09-20T13:30:47.190Z,0.10
2022-09-20T13:33:36.959Z,0.20
2022-09-20T13:36:31.863Z,0.20
2022-09-20T13:39:32.576Z,0.20
2022-09-20T13:42:20.972Z,0.10
2022-09-20T13:45:14.741Z,0.50
2022-09-20T13:48:04.792Z,0.88
2022-09-20T13:50:53.924Z,0.17
2022-09-20T13:53:44.855Z,0.40
2022-09-20T13:56:33.401Z,0.25
2022-09-20T13:59:22.330Z,0.30
2022-09-20T14:02:23.302Z,0.22
2022-09-20T14:05:17.556Z,0.43
2022-09-20T14:08:07.554Z,0.00
2022-09-20T14:11:07.278Z,0.10
2022-09-20T14:13:57.994Z,0.20
2022-09-20T14:16:49.060Z,1.48
2022-09-20T14:19:41.779Z,0.50
2022-09-20T14:22:30.750Z,0.30
2022-09-20T14:25:22.382Z,0.38
2022-09-20T14:28:20.603Z,0.20
2022-09-20T14:31:10.772Z,0.38
2022-09-20T14:34:01.274Z,0.30
2022-09-20T14:36:50.448Z,0.10
2022-09-20T14:39:48.006Z,0.20
2022-09-20T14:42:38.103Z,0.17
2022-09-20T14:45:31.488Z,0.20
2022-09-20T14:48:37.755Z,0.28
2022-09-20T14:51:26.832Z,0.45
2022-09-20T14:54:34.893Z,0.55
2022-09-20T14:57:24.118Z,1.23
2022-09-20T15:00:15.217Z,0.13
2022-09-20T15:03:08.021Z,0.28
2022-09-20T15:05:56.717Z,0.28
2022-09-20T15:08:46.737Z,0.25
2022-09-20T15:11:35.444Z,0.25
2022-09-20T15:14:24.059Z,0.20
2022-09-20T15:17:16.014Z,0.10
2022-09-20T15:20:06.627Z,0.50
2022-09-20T15:22:55.350Z,0.20
2022-09-20T15:25:43.982Z,0.30
2022-09-20T15:28:33.260Z,0.20
2022-09-20T15:31:21.827Z,0.13
2022-09-20T15:34:12.083Z,0.20
2022-09-20T15:37:04.228Z,0.20
2022-09-20T15:39:52.687Z,0.10
2022-09-20T15:42:41.499Z,0.32
2022-09-20T15:45:30.370Z,0.30
2022-09-20T15:48:23.352Z,0.50
2022-09-20T15:51:13.388Z,0.47
2022-09-20T15:54:06.248Z,0.25
2022-09-20T15:56:54.673Z,0.25
2022-09-20T15:59:43.093Z,0.40
2022-09-20T16:02:31.570Z,0.30
2022-09-20T16:05:20.022Z,0.20
2022-09-20T16:08:08.483Z,0.73
2022-09-20T16:10:59.213Z,0.20
2022-09-20T16:13:49.359Z,0.43
2022-09-20T16:16:40.645Z,0.40
2022-09-20T16:19:30.451Z,0.40
2022-09-20T16:22:19.400Z,0.63
2022-09-20T16:25:09.092Z,0.20
2022-09-20T16:27:59.095Z,0.30
2022-09-20T16:30:58.068Z,0.30
2022-09-20T16:33:46.496Z,0.40
2022-09-20T16:36:35.108Z,0.50
2022-09-20T16:39:26.357Z,0.50
2022-09-20T16:42:17.052Z,0.40
2022-09-20T16:45:07.886Z,0.57
2022-09-20T16:47:57.966Z,0.50
2022-09-20T16:50:55.611Z,0.60
2022-09-20T16:53:45.185Z,0.50
2022-09-20T16:56:35.351Z,0.50
2022-09-20T16:59:24.165Z,0.90
2022-09-20T17:02:14.132Z,0.70
2022-09-20T17:05:02.578Z,0.98
2022-09-20T17:07:50.973Z,1.00
2022-09-20T17:10:41.281Z,0.80
2022-09-20T17:13:32.859Z,0.60
2022-09-20T17:16:23.082Z,0.75
2022-09-20T17:19:15.663Z,0.65
2022-09-20T17:22:04.080Z,0.57
2022-09-20T17:24:52.516Z,0.45
2022-09-20T17:27:41.308Z,0.50
2022-09-20T17:30:30.437Z,0.30
2022-09-20T17:33:18.847Z,0.28
2022-09-20T17:36:10.318Z,0.15
2022-09-20T17:39:03.904Z,0.38
2022-09-20T17:41:52.954Z,0.40
2022-09-20T17:44:41.366Z,0.30
2022-09-20T17:47:32.378Z,0.30
2022-09-20T17:50:20.769Z,0.30
2022-09-20T17:53:10.818Z,0.47
2022-09-20T17:56:00.028Z,0.30
2022-09-20T17:58:48.415Z,0.35
2022-09-20T18:01:37.992Z,0.20
2022-09-20T18:04:26.509Z,0.47
2022-09-20T18:07:15.800Z,0.30
2022-09-20T18:10:06.275Z,0.40
2022-09-20T18:12:54.660Z,0.20
2022-09-20T18:15:45.490Z,0.40
2022-09-20T18:18:33.999Z,0.70
2022-09-20T18:21:24.223Z,0.73
2022-09-20T18:24:13.216Z,0.75
2022-09-20T18:27:04.605Z,0.50
2022-09-20T18:29:52.944Z,0.50
2022-09-20T18:32:44.346Z,0.65
2022-09-20T18:35:32.737Z,0.30
2022-09-20T18:38:21.658Z,0.80
2022-09-20T18:41:11.375Z,0.45
2022-09-20T18:44:04.011Z,0.50
2022-09-20T18:46:53.029Z,0.60
2022-09-20T18:49:41.605Z,0.82
2022-09-20T18:52:30.441Z,0.80
2022-09-20T18:55:22.535Z,0.68
2022-09-20T18:58:11.526Z,0.70
2022-09-20T19:01:18.493Z,0.60
2022-09-20T19:04:14.696Z,0.57
2022-09-20T19:07:11.725Z,0.50
2022-09-20T19:10:05.431Z,0.47
2022-09-20T19:12:59.410Z,0.80
2022-09-20T19:16:02.240Z,0.60
2022-09-20T19:19:22.310Z,0.82
2022-09-20T19:22:17.813Z,1.00
2022-09-20T19:25:19.567Z,1.30
2022-09-20T19:28:10.769Z,1.05
2022-09-20T19:30:59.695Z,1.10
2022-09-20T19:33:48.755Z,1.30
2022-09-20T19:36:45.389Z,1.20
2022-09-20T19:39:43.127Z,1.20
2022-09-20T19:42:37.420Z,1.15
2022-09-20T19:45:32.259Z,1.70
2022-09-20T19:48:26.544Z,1.42
2022-09-20T19:51:16.962Z,1.40
2022-09-20T19:54:12.094Z,1.30
2022-09-20T19:57:01.435Z,1.48
2022-09-20T19:59:51.121Z,1.63
2022-09-20T20:02:40.072Z,1.55
2022-09-20T20:05:29.268Z,1.38
2022-09-20T20:08:21.203Z,2.10
2022-09-20T20:11:16.074Z,1.52
2022-09-20T20:14:12.397Z,1.48
2022-09-20T20:17:05.453Z,1.40
2022-09-20T20:20:20.787Z,1.50
2022-09-20T20:23:32.799Z,1.67
2022-09-20T20:26:23.525Z,1.50
2022-09-20T20:29:12.870Z,2.00
2022-09-20T20:32:01.289Z,1.58
2022-09-20T20:34:49.790Z,1.88
2022-09-20T20:37:38.389Z,1.88
2022-09-20T20:40:28.345Z,2.05
2022-09-20T20:43:18.345Z,2.13
2022-09-20T20:46:08.276Z,1.67
2022-09-20T20:48:57.310Z,2.08
2022-09-20T20:51:45.750Z,1.42
2022-09-20T20:54:34.555Z,1.75
2022-09-20T20:57:23.049Z,1.80
2022-09-20T21:00:15.091Z,2.08
2022-09-20T21:03:03.810Z,1.77
2022-09-20T21:05:55.070Z,1.90
2022-09-20T21:08:49.032Z,2.00
2022-09-20T21:11:40.291Z,2.13
2022-09-20T21:14:29.322Z,1.45
2022-09-20T21:17:19.109Z,1.80
2022-09-20T21:20:08.553Z,2.00
2022-09-20T21:22:57.915Z,1.85
2022-09-20T21:25:46.304Z,1.48
2022-09-20T21:28:35.486Z,1.65
2022-09-20T21:31:24.959Z,1.40
2022-09-20T21:34:16.323Z,2.05
2022-09-20T21:37:04.741Z,1.92
2022-09-20T21:39:54.391Z,2.03
2022-09-20T21:42:42.848Z,1.85
2022-09-20T21:45:31.280Z,1.70
2022-09-20T21:48:19.662Z,1.40
2022-09-20T21:51:11.411Z,1.45
2022-09-20T21:54:01.559Z,1.48
2022-09-20T21:56:52.593Z,1.38
2022-09-20T21:59:41.374Z,1.42
2022-09-20T22:02:29.785Z,1.23
2022-09-20T22:05:18.312Z,1.50
2022-09-20T22:08:08.019Z,1.33
2022-09-20T22:10:57.774Z,1.35
2022-09-20T22:13:47.884Z,1.77
2022-09-20T22:16:37.822Z,1.60
2022-09-20T22:19:26.279Z,1.83
2022-09-20T22:22:14.700Z,1.40
2022-09-20T22:25:04.543Z,1.05
2022-09-20T22:27:53.417Z,1.70
2022-09-20T22:30:41.811Z,1.73
2022-09-20T22:33:30.896Z,1.60
2022-09-20T22:36:20.924Z,1.60
2022-09-20T22:39:10.866Z,1.42
2022-09-20T22:42:00.631Z,1.40
2022-09-20T22:44:49.075Z,1.10
2022-09-20T22:47:37.460Z,1.27
2022-09-20T22:50:25.883Z,1.20
2022-09-20T22:53:14.309Z,1.63
2022-09-20T22:56:09.595Z,1.52
2022-09-20T22:59:02.933Z,1.30
2022-09-20T23:01:51.425Z,1.35
2022-09-20T23:04:39.844Z,1.38
2022-09-20T23:07:28.279Z,1.10
2022-09-20T23:10:16.829Z,1.27
2022-09-20T23:13:05.255Z,1.05
2022-09-20T23:15:55.651Z,0.98
2022-09-20T23:18:44.052Z,1.13
2022-09-20T23:21:32.877Z,1.23
2022-09-20T23:24:21.290Z,1.13
2022-09-20T23:27:10.828Z,1.35
2022-09-20T23:29:59.267Z,1.23
2022-09-20T23:32:50.510Z,1.15
2022-09-20T23:35:44.460Z,1.33
2022-09-20T23:38:32.908Z,1.05
2022-09-20T23:41:22.842Z,1.08
2022-09-20T23:44:11.665Z,0.95
2022-09-20T23:47:00.090Z,1.20
2022-09-20T23:49:49.875Z,1.10
2022-09-20T23:52:38.354Z,0.98
2022-09-20T23:55:26.874Z,0.90
2022-09-20T23:58:15.574Z,1.40
